EDT,Max TemperatureF,Mean TemperatureF,Min TemperatureF,Max Dew PointF,MeanDew PointF,Min DewpointF,Max Humidity, Mean Humidity, Min Humidity, Max Sea Level PressureIn, Mean Sea Level PressureIn, Min Sea Level PressureIn, Max VisibilityMiles, Mean VisibilityMiles, Min VisibilityMiles, Max Wind SpeedMPH, Mean Wind SpeedMPH, Max Gust SpeedMPH,PrecipitationIn, CloudCover, Events, WindDirDegrees
2013-7-1,73,63,53,50,45,34,82,53,23,30.20,30.16,30.07,10,10,10,13,7,16,0.00,0,,32
2013-7-2,75,63,51,48,43,36,82,52,25,30.20,30.16,30.10,10,10,6,9,5,,0.00,0,,42
2013-7-3,77,67,57,55,49,41,88,54,31,30.15,30.10,30.05,10,10,10,12,4,20,0.00,2,,133
2013-7-4,75,68,60,63,61,57,100,84,61,30.07,30.04,30.02,10,9,3,12,6,20,0.00,4,,191
2013-7-5,82,70,59,64,60,54,100,70,37,30.06,30.03,29.99,10,10,8,14,6,21,0.00,0,,200
2013-7-6,84,73,62,64,60,55,88,65,39,30.02,30.00,29.96,10,10,7,14,6,22,0.00,0,,209
2013-7-7,80,71,62,72,66,61,94,84,61,29.99,29.95,29.93,10,9,5,9,4,,0.20,3,Thunderstorm,202
2013-7-8,68,65,62,66,65,61,100,97,94,30.01,29.98,29.95,10,6,1,12,5,,0.00,8,,95
2013-7-9,78,71,64,70,66,63,100,87,69,30.02,29.93,29.74,10,6,0,13,4,,0.05,8,,133
2013-7-10,69,64,57,70,60,52,100,85,64,29.93,29.76,29.61,10,8,0,24,12,31,0.04,8,,281
2013-7-11,71,61,51,55,53,50,100,73,53,30.11,30.06,29.93,10,10,10,12,7,,0.00,3,,328
2013-7-12,80,66,51,61,53,48,100,66,34,30.19,30.15,30.10,10,10,2,12,4,17,0.00,0,,175
2013-7-13,82,68,55,61,56,52,100,65,35,30.21,30.18,30.13,10,10,10,14,8,17,0.00,0,,165
2013-7-14,86,72,57,64,60,57,100,66,42,30.27,30.24,30.20,10,10,8,12,4,22,0.00,0,,195
2013-7-15,89,76,62,66,64,61,94,67,40,30.31,30.27,30.25,10,10,10,10,3,18,0.00,1,,223
2013-7-16,91,80,68,72,67,61,94,70,36,30.29,30.24,30.18,10,10,5,12,3,17,0.00,2,,220
2013-7-17,91,81,71,73,71,63,100,80,38,30.20,30.16,30.11,10,9,2,16,7,23,0.15,2,,257
2013-7-18,82,75,68,73,70,68,100,91,66,30.11,29.98,29.74,10,9,1,18,6,38,1.06,4,Thunderstorm,222
2013-7-19,80,71,62,72,65,57,100,84,53,29.79,29.68,29.60,10,10,3,24,9,30,0.87,4,Thunderstorm,268
2013-7-20,64,58,53,59,51,39,100,71,40,30.01,29.86,29.72,10,10,10,20,8,25,0.00,1,,301
2013-7-21,71,60,48,54,51,46,100,72,41,30.07,30.02,29.97,10,10,10,13,6,16,0.00,1,,136
2013-7-22,80,68,57,66,61,54,94,74,54,29.97,29.81,29.61,10,10,6,13,8,21,0.01,4,,165
2013-7-23,71,62,51,66,52,45,94,74,55,29.95,29.75,29.58,10,10,3,29,14,38,0.00,5,,303
2013-7-24,69,56,42,55,48,43,100,69,40,30.06,30.02,29.95,10,10,7,13,5,17,0.00,0,,287
2013-7-25,75,64,53,59,54,50,100,73,46,30.07,30.04,30.00,10,10,10,17,5,23,0.00,4,,166
2013-7-26,68,64,59,66,61,57,100,94,83,30.00,29.91,29.83,10,9,2,16,9,17,2.42,7,Thunderstorm,151
2013-7-27,62,56,51,59,53,50,100,89,72,29.86,29.83,29.76,10,9,1,14,7,17,0.00,7,,320
2013-7-28,64,55,46,55,51,46,100,87,59,29.89,29.78,29.70,10,10,3,13,7,20,0.05,7,,235
2013-7-29,66,58,51,55,53,50,100,87,56,30.16,30.02,29.90,10,8,0,16,6,22,0.01,5,,292
2013-7-30,75,62,48,61,55,46,100,79,57,30.20,30.16,30.11,10,10,5,12,3,18,0.00,3,,221
2013-7-31,75,66,57,63,59,55,100,84,61,30.11,29.99,29.88,10,10,0,25,5,37,0.25,7,Thunderstorm,199